createdAt,value
2022-11-19T00:01:32.013Z,3.58
2022-11-19T00:03:59.130Z,3.65
2022-11-19T00:06:27.820Z,3.47
2022-11-19T00:08:55.687Z,3.50
2022-11-19T00:11:44.484Z,3.74
2022-11-19T00:14:13.885Z,3.48
2022-11-19T00:16:41.677Z,3.35
2022-11-19T00:19:10.606Z,3.60
2022-11-19T00:21:37.652Z,3.34
2022-11-19T00:24:04.798Z,3.69
2022-11-19T00:26:33.551Z,3.75
2022-11-19T00:29:00.257Z,3.73
2022-11-19T00:31:27.054Z,3.64
2022-11-19T00:33:54.726Z,3.55
2022-11-19T00:36:22.796Z,3.71
2022-11-19T00:38:52.682Z,3.68
2022-11-19T00:41:25.087Z,3.65
2022-11-19T00:43:52.043Z,3.53
2022-11-19T00:46:29.926Z,3.65
2022-11-19T00:49:00.857Z,3.63
2022-11-19T00:51:30.398Z,3.43
2022-11-19T00:53:57.854Z,3.37
2022-11-19T00:56:26.427Z,3.50
2022-11-19T00:58:53.477Z,3.62
2022-11-19T01:01:23.606Z,3.28
2022-11-19T01:03:51.444Z,3.28
2022-11-19T01:06:23.697Z,3.61
2022-11-19T01:08:52.415Z,3.58
2022-11-19T01:11:23.370Z,3.59
2022-11-19T01:13:50.758Z,3.61
2022-11-19T01:16:21.677Z,3.59
2022-11-19T01:18:50.298Z,3.58
2022-11-19T01:21:18.942Z,3.56
2022-11-19T01:23:51.983Z,3.45
2022-11-19T01:26:19.750Z,3.20
2022-11-19T01:28:47.078Z,3.50
2022-11-19T01:31:20.452Z,3.19
2022-11-19T01:33:50.871Z,3.05
2022-11-19T01:36:23.936Z,3.36
2022-11-19T01:38:52.040Z,3.24
2022-11-19T01:41:20.775Z,3.03
2022-11-19T01:43:56.500Z,3.29
2022-11-19T01:46:26.262Z,2.92
2022-11-19T01:49:09.828Z,3.24
2022-11-19T01:51:57.683Z,3.21
2022-11-19T01:54:28.610Z,3.24
2022-11-19T01:56:58.373Z,3.11
2022-11-19T01:59:27.147Z,3.14
2022-11-19T02:01:54.468Z,3.02
2022-11-19T02:04:22.584Z,2.79
2022-11-19T02:06:56.938Z,2.73
2022-11-19T02:09:33.121Z,2.64
2022-11-19T02:12:27.868Z,2.76
2022-11-19T02:15:16.672Z,2.86
2022-11-19T02:18:07.539Z,2.85
2022-11-19T02:20:47.111Z,2.73
2022-11-19T02:23:43.192Z,2.96
2022-11-19T02:26:37.291Z,2.95
2022-11-19T02:29:32.078Z,2.85
2022-11-19T02:32:04.828Z,2.85
2022-11-19T02:34:35.983Z,2.88
2022-11-19T02:37:14.673Z,2.85
2022-11-19T02:39:58.572Z,2.76
2022-11-19T02:42:33.599Z,2.75
2022-11-19T02:45:10.406Z,2.77
2022-11-19T02:47:56.503Z,2.72
2022-11-19T02:50:51.064Z,2.69
2022-11-19T02:53:21.782Z,2.67
2022-11-19T02:56:08.116Z,2.64
2022-11-19T02:58:57.479Z,2.55
2022-11-19T03:01:45.631Z,2.58
2022-11-19T03:04:31.405Z,2.55
2022-11-19T03:07:13.234Z,2.63
2022-11-19T03:09:44.706Z,2.59
2022-11-19T03:12:21.879Z,2.52
2022-11-19T03:15:19.043Z,2.59
2022-11-19T03:18:02.652Z,2.60
2022-11-19T03:20:51.142Z,2.49
2022-11-19T03:23:36.222Z,2.53
2022-11-19T03:26:38.298Z,2.50
2022-11-19T03:29:10.640Z,2.41
2022-11-19T03:31:39.987Z,2.41
2022-11-19T03:34:21.380Z,2.36
2022-11-19T03:36:51.109Z,2.41
2022-11-19T03:39:20.824Z,2.44
2022-11-19T03:41:54.277Z,2.47
2022-11-19T03:44:35.298Z,2.40
2022-11-19T03:47:11.657Z,2.33
2022-11-19T03:49:42.690Z,2.26
2022-11-19T03:52:21.765Z,2.23
2022-11-19T03:54:48.868Z,2.26
2022-11-19T03:57:19.118Z,2.29
2022-11-19T03:59:46.739Z,2.23
2022-11-19T04:02:14.670Z,2.22
2022-11-19T04:04:41.664Z,2.22
2022-11-19T04:07:11.524Z,2.14
2022-11-19T04:09:40.492Z,2.34
2022-11-19T04:12:14.260Z,2.13
2022-11-19T04:15:14.199Z,2.05
2022-11-19T04:17:53.539Z,1.96
2022-11-19T04:20:42.904Z,2.26
2022-11-19T04:23:33.308Z,2.08
2022-11-19T04:26:01.474Z,2.05
2022-11-19T04:28:28.715Z,2.16
2022-11-19T04:30:55.882Z,1.90
2022-11-19T04:33:58.297Z,1.88
2022-11-19T04:36:32.538Z,1.99
2022-11-19T04:38:59.589Z,1.80
2022-11-19T04:41:29.408Z,1.97
2022-11-19T04:43:56.459Z,1.62
2022-11-19T04:46:31.584Z,1.74
2022-11-19T04:48:58.747Z,1.71
2022-11-19T04:51:25.864Z,1.63
2022-11-19T04:53:53.707Z,1.97
2022-11-19T04:56:20.567Z,1.90
2022-11-19T04:58:47.579Z,1.94
2022-11-19T05:01:14.783Z,1.71
2022-11-19T05:03:41.930Z,1.50
2022-11-19T05:06:08.830Z,1.72
2022-11-19T05:08:35.728Z,1.70
2022-11-19T05:11:08.027Z,1.83
2022-11-19T05:13:34.859Z,1.63
2022-11-19T05:16:02.241Z,1.66
2022-11-19T05:18:29.171Z,1.72
2022-11-19T05:20:58.364Z,1.66
2022-11-19T05:23:25.677Z,1.69
2022-11-19T05:25:53.133Z,1.68
2022-11-19T05:28:37.973Z,1.57
2022-11-19T05:31:08.175Z,1.53
2022-11-19T05:33:35.876Z,1.53
2022-11-19T05:36:06.184Z,1.48
2022-11-19T05:38:37.909Z,1.52
2022-11-19T05:41:04.905Z,1.47
2022-11-19T05:43:32.668Z,1.50
2022-11-19T05:46:02.897Z,1.45
2022-11-19T05:48:30.464Z,1.33
2022-11-19T05:50:57.523Z,1.35
2022-11-19T05:53:24.625Z,1.36
2022-11-19T05:55:51.630Z,1.11
2022-11-19T05:58:19.840Z,1.27
2022-11-19T06:00:46.568Z,1.26
2022-11-19T06:03:43.319Z,1.21
2022-11-19T06:07:03.271Z,0.93
2022-11-19T06:09:30.215Z,0.80
2022-11-19T06:11:57.246Z,1.01
2022-11-19T06:14:26.282Z,0.87
2022-11-19T06:16:57.920Z,1.10
2022-11-19T06:19:31.457Z,0.73
2022-11-19T06:21:58.488Z,0.81
2022-11-19T06:24:31.911Z,0.73
2022-11-19T06:27:01.835Z,1.09
2022-11-19T06:29:29.091Z,0.82
2022-11-19T06:32:06.720Z,0.93
2022-11-19T06:34:36.730Z,0.74
2022-11-19T06:37:04.382Z,0.51
2022-11-19T06:39:40.973Z,0.90
2022-11-19T06:45:27.133Z,0.36
2022-11-19T06:47:54.647Z,0.70
2022-11-19T06:50:27.129Z,0.21
2022-11-19T06:52:55.691Z,0.23
2022-11-19T06:55:24.095Z,0.35
2022-11-19T06:57:51.657Z,0.34
2022-11-19T07:00:22.283Z,0.06
2022-11-19T07:02:52.006Z,0.47
2022-11-19T07:05:22.626Z,0.22
2022-11-19T07:07:51.094Z,-0.02
2022-11-19T07:10:20.963Z,0.35
2022-11-19T07:12:48.299Z,0.45
2022-11-19T07:15:21.425Z,0.04
2022-11-19T07:17:51.108Z,-0.07
2022-11-19T07:20:20.923Z,0.22
2022-11-19T07:22:47.941Z,-0.08
2022-11-19T07:25:15.490Z,0.27
2022-11-19T07:27:48.312Z,0.10
2022-11-19T07:30:21.769Z,0.09
2022-11-19T07:32:51.296Z,-0.07
2022-11-19T07:35:23.499Z,-0.03
2022-11-19T07:37:51.480Z,-0.12
2022-11-19T07:40:20.225Z,0.13
2022-11-19T07:42:53.467Z,0.01
2022-11-19T07:45:22.764Z,0.04
2022-11-19T07:47:50.364Z,-0.01
2022-11-19T07:50:17.842Z,-0.01
2022-11-19T07:52:46.705Z,0.01
2022-11-19T07:55:13.953Z,-0.01
2022-11-19T07:57:40.738Z,-0.07
2022-11-19T08:00:23.074Z,-0.15
2022-11-19T08:02:52.305Z,-0.16
2022-11-19T08:05:23.719Z,-0.19
2022-11-19T08:08:17.742Z,-0.42
2022-11-19T08:10:48.060Z,-0.17
2022-11-19T08:13:17.656Z,-0.38
2022-11-19T08:15:44.469Z,-0.46
2022-11-19T08:18:13.969Z,-0.59
2022-11-19T08:20:45.725Z,-0.21
2022-11-19T08:23:15.245Z,-0.16
2022-11-19T08:25:44.497Z,-0.15
2022-11-19T08:28:12.475Z,-0.30
2022-11-19T08:30:42.122Z,-0.53
2022-11-19T08:33:09.235Z,-0.22
2022-11-19T08:35:36.337Z,-0.24
2022-11-19T08:38:06.251Z,-0.19
2022-11-19T08:40:33.285Z,-0.41
2022-11-19T08:43:00.123Z,-0.17
2022-11-19T08:45:32.723Z,-0.36
2022-11-19T08:48:02.254Z,-0.31
2022-11-19T08:50:30.754Z,-0.46
2022-11-19T08:53:05.227Z,-0.10
2022-11-19T08:55:32.906Z,0.08
2022-11-19T08:58:04.268Z,-0.01
2022-11-19T09:00:32.406Z,-0.24
2022-11-19T09:03:05.007Z,-0.31
2022-11-19T09:05:34.357Z,-0.07
2022-11-19T09:08:01.363Z,-0.19
2022-11-19T09:10:38.111Z,-0.01
2022-11-19T09:13:05.911Z,-0.37
2022-11-19T09:15:33.626Z,0.03
2022-11-19T09:18:02.217Z,-0.11
2022-11-19T09:20:29.969Z,-0.28
2022-11-19T09:22:56.959Z,-0.02
2022-11-19T09:25:24.307Z,-0.25
2022-11-19T09:27:51.263Z,-0.13
2022-11-19T09:30:20.350Z,0.12
2022-11-19T09:32:47.448Z,0.08
2022-11-19T09:35:14.359Z,-0.06
2022-11-19T09:37:43.644Z,0.04
2022-11-19T09:40:22.032Z,0.27
2022-11-19T09:43:04.228Z,0.19
2022-11-19T09:45:58.868Z,0.22
2022-11-19T09:49:00.862Z,0.31
2022-11-19T14:00:21.625Z,2.60
2022-11-19T14:03:16.525Z,2.61
2022-11-19T14:06:09.316Z,2.60
2022-11-19T14:08:57.418Z,2.61
2022-11-19T14:11:56.974Z,2.61
2022-11-19T14:14:55.366Z,2.56
2022-11-19T14:18:01.879Z,2.50
2022-11-19T14:23:23.043Z,2.51
2022-11-19T14:26:08.025Z,2.47
2022-11-19T14:28:50.785Z,2.52
2022-11-19T14:31:19.793Z,2.48
2022-11-19T14:33:49.323Z,2.54
2022-11-19T14:36:24.003Z,2.55
2022-11-19T14:38:56.797Z,2.57
2022-11-19T14:41:35.392Z,2.55
2022-11-19T14:44:35.841Z,2.58
2022-11-19T14:47:34.421Z,2.50
2022-11-19T14:50:05.540Z,2.46
2022-11-19T14:52:35.981Z,2.47
2022-11-19T14:55:19.534Z,2.45
2022-11-19T14:57:56.037Z,2.46
2022-11-19T15:00:35.848Z,2.35
2022-11-19T15:03:06.179Z,2.35
2022-11-19T15:05:39.587Z,2.31
2022-11-19T15:08:18.452Z,2.35
2022-11-19T15:11:05.204Z,2.37
2022-11-19T15:13:34.719Z,2.31
2022-11-19T15:16:26.504Z,2.31
2022-11-19T15:19:12.084Z,2.20
2022-11-19T15:21:52.135Z,2.20
2022-11-19T15:24:51.700Z,2.07
2022-11-19T15:27:39.979Z,1.95
2022-11-19T15:30:10.437Z,1.89
2022-11-19T15:32:52.076Z,1.87
2022-11-19T15:35:30.839Z,1.83
2022-11-19T15:38:27.278Z,1.80
2022-11-19T15:41:00.631Z,1.73
2022-11-19T15:43:34.382Z,1.73
2022-11-19T15:46:04.897Z,1.70
2022-11-19T15:48:41.880Z,1.64
2022-11-19T15:51:14.277Z,1.43
2022-11-19T15:54:07.107Z,1.52
2022-11-19T15:56:46.040Z,1.44
2022-11-19T15:59:14.570Z,1.47
2022-11-19T16:01:42.046Z,1.48
2022-11-19T16:04:15.211Z,1.38
2022-11-19T16:06:46.402Z,1.27
2022-11-19T16:09:23.867Z,1.20
2022-11-19T16:12:09.459Z,1.14
2022-11-19T16:14:56.345Z,1.15
2022-11-19T16:17:39.797Z,1.07
2022-11-19T16:20:11.749Z,1.11
2022-11-19T16:22:49.224Z,0.99
2022-11-19T16:25:27.184Z,0.94
2022-11-19T16:27:57.144Z,0.88
2022-11-19T16:30:29.157Z,0.87
2022-11-19T16:33:02.491Z,0.79
2022-11-19T16:35:31.859Z,0.79
2022-11-19T16:38:00.120Z,0.62
2022-11-19T16:40:48.279Z,0.76
2022-11-19T16:43:15.422Z,0.63
2022-11-19T16:45:45.663Z,0.57
2022-11-19T16:48:50.237Z,0.53
2022-11-19T16:51:31.241Z,0.51
2022-11-19T16:53:58.361Z,0.34
2022-11-19T16:56:31.690Z,0.38
2022-11-19T16:59:03.084Z,0.30
2022-11-19T17:01:30.214Z,0.28
2022-11-19T17:04:04.896Z,0.28
2022-11-19T17:06:34.820Z,0.32
2022-11-19T17:09:02.242Z,0.31
2022-11-19T17:11:59.096Z,0.21
2022-11-19T17:14:34.599Z,0.12
2022-11-19T17:17:02.851Z,0.16
2022-11-19T17:19:34.476Z,0.17
2022-11-19T17:22:03.923Z,0.13
2022-11-19T17:24:50.900Z,0.19
2022-11-19T17:27:34.442Z,0.22
2022-11-19T17:30:21.185Z,0.17
2022-11-19T17:33:14.779Z,0.22
2022-11-19T17:35:43.227Z,0.15
2022-11-19T17:38:31.189Z,-0.06
2022-11-19T17:41:02.512Z,-0.02
2022-11-19T17:43:56.200Z,-0.12
2022-11-19T17:46:29.302Z,-0.09
2022-11-19T17:48:56.924Z,-0.12
2022-11-19T17:51:25.628Z,-0.15
2022-11-19T17:53:52.718Z,-0.12
2022-11-19T17:56:23.126Z,-0.12
2022-11-19T17:58:49.841Z,-0.03
2022-11-19T18:01:16.839Z,0.04
2022-11-19T18:03:46.748Z,0.01
2022-11-19T18:06:14.952Z,-0.10
2022-11-19T18:08:42.289Z,-0.11
2022-11-19T18:11:27.177Z,-0.15
2022-11-19T18:13:56.784Z,-0.26
2022-11-19T18:16:38.050Z,-0.26
2022-11-19T18:19:14.582Z,-0.22
2022-11-19T18:21:42.407Z,-0.50
2022-11-19T18:24:12.820Z,-0.43
2022-11-19T18:26:39.553Z,-0.36
2022-11-19T18:29:06.269Z,-0.37
2022-11-19T18:31:33.419Z,-0.32
2022-11-19T18:34:00.434Z,-0.33
2022-11-19T18:36:28.519Z,-0.46
2022-11-19T18:38:57.472Z,-0.34
2022-11-19T18:41:24.722Z,-0.33
2022-11-19T18:44:09.854Z,-0.29
2022-11-19T18:46:44.754Z,-0.38
2022-11-19T18:49:14.135Z,-0.29
2022-11-19T18:51:42.319Z,-0.14
2022-11-19T18:54:11.981Z,-0.14
2022-11-19T18:56:39.695Z,-0.23
2022-11-19T18:59:07.608Z,-0.34
2022-11-19T19:01:34.504Z,-0.39
2022-11-19T19:04:02.031Z,-0.38
2022-11-19T19:06:29.025Z,-0.40
2022-11-19T19:08:56.620Z,-0.35
2022-11-19T19:11:43.138Z,-0.41
2022-11-19T19:14:09.789Z,-0.49
2022-11-19T19:16:36.643Z,-0.61
2022-11-19T19:19:04.186Z,-0.79
2022-11-19T19:21:32.488Z,-0.73
2022-11-19T19:23:59.341Z,-0.89
2022-11-19T19:26:26.060Z,-0.76
2022-11-19T19:28:53.948Z,-0.82
2022-11-19T19:31:24.684Z,-0.71
2022-11-19T19:33:52.084Z,-0.73
2022-11-19T19:36:22.049Z,-0.69
2022-11-19T19:38:48.980Z,-0.66
2022-11-19T19:41:25.992Z,-0.65
2022-11-19T19:43:54.738Z,-0.65
2022-11-19T19:46:23.498Z,-0.62
2022-11-19T19:48:54.881Z,-0.66
2022-11-19T19:51:23.741Z,-0.71
2022-11-19T19:53:51.081Z,-0.68
2022-11-19T19:56:23.743Z,-0.75
2022-11-19T19:58:50.983Z,-0.70
2022-11-19T20:01:21.775Z,-0.59
2022-11-19T20:03:54.120Z,-0.73
2022-11-19T20:06:23.154Z,-0.79
2022-11-19T20:08:50.903Z,-0.81
2022-11-19T20:11:24.835Z,-0.76
2022-11-19T20:13:55.919Z,-0.73
2022-11-19T20:16:33.776Z,-0.85
2022-11-19T20:19:02.303Z,-0.82
2022-11-19T20:21:34.023Z,-0.72
2022-11-19T20:24:00.781Z,-0.68
2022-11-19T20:26:30.081Z,-0.77
2022-11-19T20:28:58.850Z,-0.77
2022-11-19T20:31:27.081Z,-0.81
2022-11-19T20:33:57.106Z,-1.02
2022-11-19T20:36:25.290Z,-1.00
2022-11-19T20:38:52.494Z,-1.11
2022-11-19T20:41:39.279Z,-1.12
2022-11-19T20:44:22.746Z,-1.08
2022-11-19T20:47:07.816Z,-1.19
2022-11-19T20:49:36.243Z,-1.23
2022-11-19T20:52:03.536Z,-1.24
2022-11-19T20:54:30.299Z,-1.40
2022-11-19T20:56:57.780Z,-1.33
2022-11-19T20:59:26.241Z,-1.29
2022-11-19T21:01:54.392Z,-1.44
2022-11-19T21:04:21.730Z,-1.55
2022-11-19T21:06:49.875Z,-1.46
2022-11-19T21:09:16.607Z,-1.57
2022-11-19T21:11:43.776Z,-1.52
2022-11-19T21:14:10.260Z,-1.56
2022-11-19T21:16:36.993Z,-1.64
2022-11-19T21:19:04.217Z,-1.62
2022-11-19T21:21:30.697Z,-1.66
2022-11-19T21:23:57.501Z,-1.65
2022-11-19T21:26:25.936Z,-1.68
2022-11-19T21:28:54.910Z,-1.73
2022-11-19T21:31:37.708Z,-1.69
2022-11-19T21:34:06.090Z,-1.61
2022-11-19T21:36:34.802Z,-1.59
2022-11-19T21:39:01.182Z,-1.54
2022-11-19T21:41:27.641Z,-1.67
2022-11-19T21:43:54.080Z,-1.73
2022-11-19T21:46:20.600Z,-1.73
2022-11-19T21:48:47.291Z,-1.69
2022-11-19T21:51:13.704Z,-1.72
2022-11-19T21:53:40.228Z,-1.72
2022-11-19T21:56:07.571Z,-1.73
2022-11-19T21:58:33.985Z,-1.74
2022-11-19T22:01:02.404Z,-1.77
2022-11-19T22:03:31.444Z,-1.75
2022-11-19T22:06:12.118Z,-1.71
2022-11-19T22:08:40.711Z,-1.70
2022-11-19T22:11:27.527Z,-1.74
2022-11-19T22:13:55.382Z,-1.79
2022-11-19T22:16:23.578Z,-1.84
2022-11-19T22:18:50.434Z,-1.89
2022-11-19T22:21:20.523Z,-2.02
2022-11-19T22:23:47.251Z,-2.06
2022-11-19T22:26:15.818Z,-1.97
2022-11-19T22:28:42.408Z,-2.02
2022-11-19T22:31:09.575Z,-2.05
2022-11-19T22:33:38.647Z,-2.15
2022-11-19T22:36:10.021Z,-2.14
2022-11-19T22:38:38.260Z,-2.19
2022-11-19T22:41:17.374Z,-2.26
2022-11-19T22:43:44.363Z,-2.35
2022-11-19T22:46:12.872Z,-2.35
2022-11-19T22:48:42.754Z,-2.33
2022-11-19T22:51:13.781Z,-2.19
2022-11-19T22:53:41.393Z,-2.24
2022-11-19T22:56:14.827Z,-2.29
2022-11-19T22:58:43.071Z,-2.32
2022-11-19T23:01:19.486Z,-2.23
2022-11-19T23:03:46.876Z,-2.26
2022-11-19T23:06:15.404Z,-2.30
2022-11-19T23:08:42.856Z,-2.31
2022-11-19T23:11:11.062Z,-2.41
2022-11-19T23:13:40.789Z,-2.46
2022-11-19T23:16:22.021Z,-2.28
2022-11-19T23:18:50.851Z,-2.36
2022-11-19T23:21:22.004Z,-2.37
2022-11-19T23:23:52.302Z,-2.37
2022-11-19T23:26:22.998Z,-2.42
2022-11-19T23:28:50.357Z,-2.43
2022-11-19T23:31:20.176Z,-2.53
2022-11-19T23:33:47.955Z,-2.46
2022-11-19T23:36:21.333Z,-2.40
2022-11-19T23:38:48.514Z,-2.43
2022-11-19T23:41:17.224Z,-2.44
2022-11-19T23:43:45.945Z,-2.54
2022-11-19T23:46:18.842Z,-2.57
2022-11-19T23:48:48.302Z,-2.49
2022-11-19T23:51:28.492Z,-2.51
2022-11-19T23:53:59.851Z,-2.50
2022-11-19T23:56:29.024Z,-2.59
2022-11-19T23:58:56.126Z,-2.66
